Time;durP1;ratioP1;P1;durP2;ratioP2;P2;SDS_P1;SDS_P2;PMS_P1;PMS_P2;Temp;Humidity;BMP_temperature;BMP_pressure;BME280_temperature;BME280_humidity;BME280_pressure;Samples;Min_cycle;Max_cycle;Signal;HPM_P1;HPM_P2
2023/04/24 00:00:25;;;;;;;0.75;0.60;;;10.30;99.90;;;;;;5047655;28;20041;-64
2023/04/24 00:02:51;;;;;;;1.10;0.60;;;10.30;99.90;;;;;;5047755;28;20052;-63
2023/04/24 00:05:17;;;;;;;0.65;0.50;;;10.30;99.90;;;;;;5047089;28;20056;-63
2023/04/24 00:07:46;;;;;;;1.20;0.50;;;10.30;99.90;;;;;;5046957;28;20048;-63
2023/04/24 00:10:12;;;;;;;0.60;0.60;;;10.30;99.90;;;;;;5047167;28;20076;-63
2023/04/24 00:12:38;;;;;;;0.70;0.70;;;10.30;99.90;;;;;;5048116;28;20049;-65
2023/04/24 00:15:05;;;;;;;0.50;0.50;;;10.30;99.90;;;;;;5048769;28;20051;-65
2023/04/24 00:17:31;;;;;;;0.70;0.70;;;10.30;99.90;;;;;;5047674;28;20045;-65
2023/04/24 00:19:59;;;;;;;1.48;0.80;;;10.30;99.90;;;;;;5048097;28;20108;-63
2023/04/24 00:22:26;;;;;;;2.72;0.77;;;10.30;99.90;;;;;;5047284;28;20056;-65
2023/04/24 00:24:51;;;;;;;0.90;0.90;;;10.30;99.90;;;;;;5047682;28;20064;-65
2023/04/24 00:27:17;;;;;;;0.95;0.82;;;10.30;99.90;;;;;;5047205;28;20530;-64
2023/04/24 00:29:42;;;;;;;1.05;0.88;;;10.20;99.90;;;;;;5047639;28;20037;-64
2023/04/24 00:32:08;;;;;;;0.80;0.80;;;10.20;99.90;;;;;;5047559;28;20317;-64
2023/04/24 00:34:34;;;;;;;1.50;0.90;;;10.20;99.90;;;;;;5046323;28;20051;-65
2023/04/24 00:37:00;;;;;;;1.00;1.00;;;10.20;99.90;;;;;;5046512;28;20056;-64
2023/04/24 00:39:25;;;;;;;1.20;1.10;;;10.20;99.90;;;;;;5045815;28;20033;-65
2023/04/24 00:41:52;;;;;;;1.27;1.17;;;10.20;99.90;;;;;;5046856;28;20064;-63
2023/04/24 00:44:18;;;;;;;2.08;1.40;;;10.20;99.90;;;;;;5047403;28;20067;-65
2023/04/24 00:46:43;;;;;;;1.45;1.35;;;10.20;99.90;;;;;;5062247;28;20037;-64
2023/04/24 00:49:09;;;;;;;1.30;1.10;;;10.20;99.90;;;;;;5045517;28;20055;-63
2023/04/24 00:51:36;;;;;;;1.55;1.45;;;10.20;99.90;;;;;;5047154;28;20047;-64
2023/04/24 00:54:02;;;;;;;1.52;1.38;;;10.20;99.90;;;;;;5048137;28;20412;-63
2023/04/24 00:56:28;;;;;;;1.80;1.70;;;10.20;99.90;;;;;;5047739;28;20045;-65
2023/04/24 00:58:55;;;;;;;2.00;1.80;;;10.20;99.90;;;;;;5047940;28;20033;-64
2023/04/24 01:01:21;;;;;;;1.75;1.65;;;10.20;99.90;;;;;;5047371;28;20116;-63
2023/04/24 01:03:50;;;;;;;2.53;2.30;;;10.20;99.90;;;;;;5047164;28;20044;-64
2023/04/24 01:06:17;;;;;;;2.13;2.03;;;10.20;99.90;;;;;;5048016;28;20052;-63
2023/04/24 01:08:45;;;;;;;2.60;2.40;;;10.20;99.90;;;;;;5047057;28;20045;-63
2023/04/24 01:11:11;;;;;;;2.92;2.60;;;10.20;99.90;;;;;;5047423;28;20068;-63
2023/04/24 01:13:36;;;;;;;3.20;2.70;;;10.20;99.90;;;;;;5045081;28;20044;-65
2023/04/24 01:16:02;;;;;;;3.13;2.92;;;10.20;99.90;;;;;;5044996;28;20488;-65
2023/04/24 01:18:28;;;;;;;3.30;3.00;;;10.20;99.90;;;;;;5044636;28;20033;-65
2023/04/24 01:20:57;;;;;;;2.95;2.75;;;10.20;99.90;;;;;;5042625;28;20045;-62
2023/04/24 01:23:23;;;;;;;3.13;2.92;;;10.20;99.90;;;;;;5046376;28;20045;-65
2023/04/24 01:25:49;;;;;;;2.90;2.70;;;10.20;99.90;;;;;;5045621;28;20411;-64
2023/04/24 01:28:16;;;;;;;2.20;2.10;;;10.20;99.90;;;;;;5045752;28;20048;-63
2023/04/24 01:30:41;;;;;;;2.67;2.40;;;10.20;99.90;;;;;;5045391;28;20029;-62
2023/04/24 01:33:07;;;;;;;2.40;2.30;;;10.20;99.90;;;;;;5046022;28;20052;-63
2023/04/24 01:35:34;;;;;;;2.67;2.47;;;10.20;99.90;;;;;;5044860;28;20045;-66
2023/04/24 01:38:00;;;;;;;2.47;2.30;;;10.20;99.90;;;;;;5061340;28;20156;-62
2023/04/24 01:40:25;;;;;;;2.40;2.20;;;10.10;99.90;;;;;;5045384;28;20119;-63
2023/04/24 01:42:52;;;;;;;2.40;2.20;;;10.10;99.90;;;;;;5045818;28;20535;-65
2023/04/24 01:45:17;;;;;;;2.42;2.30;;;10.00;99.90;;;;;;5045910;28;20052;-65
2023/04/24 01:47:44;;;;;;;2.35;2.25;;;10.00;99.90;;;;;;5046729;28;20131;-62
2023/04/24 01:50:10;;;;;;;2.53;2.42;;;10.00;99.90;;;;;;5065045;28;20092;-63
2023/04/24 01:52:36;;;;;;;2.53;2.35;;;9.90;99.90;;;;;;5048503;28;20573;-63
2023/04/24 01:55:05;;;;;;;2.53;2.33;;;9.90;99.90;;;;;;5053083;28;20527;-62
2023/04/24 01:57:32;;;;;;;2.40;2.30;;;9.90;99.90;;;;;;5051763;28;20155;-64
2023/04/24 01:59:58;;;;;;;2.67;2.28;;;9.80;99.90;;;;;;5051964;28;20052;-63
2023/04/24 02:02:23;;;;;;;2.30;2.20;;;9.80;99.90;;;;;;5051369;28;20033;-63
2023/04/24 02:04:52;;;;;;;2.63;2.10;;;9.80;99.90;;;;;;5054531;28;20048;-62
2023/04/24 02:07:17;;;;;;;2.38;2.28;;;9.80;99.90;;;;;;5051652;28;20041;-64
2023/04/24 02:09:43;;;;;;;2.05;1.90;;;9.80;99.90;;;;;;5051474;28;20120;-63
2023/04/24 02:12:09;;;;;;;2.33;2.10;;;9.70;99.90;;;;;;5051459;28;20044;-63
2023/04/24 02:14:34;;;;;;;2.78;2.25;;;9.70;99.90;;;;;;5053035;28;20108;-63
2023/04/24 02:17:00;;;;;;;2.78;2.15;;;9.70;99.90;;;;;;5054379;28;20584;-66
2023/04/24 02:19:26;;;;;;;2.05;1.95;;;9.70;99.90;;;;;;5052953;28;20072;-63
2023/04/24 02:21:53;;;;;;;2.78;1.80;;;9.70;99.90;;;;;;5053483;28;20391;-66
2023/04/24 02:24:18;;;;;;;1.70;1.60;;;9.70;99.90;;;;;;5053830;28;20051;-63
2023/04/24 02:26:44;;;;;;;1.73;1.63;;;9.70;99.90;;;;;;5053789;28;20053;-62
2023/04/24 02:29:10;;;;;;;1.80;1.70;;;9.70;99.90;;;;;;5052164;28;20123;-65
2023/04/24 02:31:36;;;;;;;1.90;1.80;;;9.60;99.90;;;;;;5051031;28;20068;-64
2023/04/24 02:34:01;;;;;;;2.10;1.67;;;9.70;99.90;;;;;;5055210;28;20033;-65
2023/04/24 02:36:27;;;;;;;2.25;1.60;;;9.70;99.90;;;;;;5053399;28;20135;-65
2023/04/24 02:38:53;;;;;;;2.03;1.60;;;9.70;99.90;;;;;;5052235;28;20052;-65
2023/04/24 02:41:19;;;;;;;2.13;1.60;;;9.60;99.90;;;;;;5070467;28;20456;-64
2023/04/24 02:43:45;;;;;;;4.13;1.50;;;9.60;99.90;;;;;;5034858;28;20029;-64
2023/04/24 02:46:10;;;;;;;1.63;1.52;;;9.60;99.90;;;;;;5052991;28;20398;-64
2023/04/24 02:48:36;;;;;;;1.30;1.20;;;9.60;99.90;;;;;;5052815;28;20070;-63
2023/04/24 02:51:01;;;;;;;2.55;1.30;;;9.60;99.90;;;;;;5051661;28;20045;-63
2023/04/24 02:53:29;;;;;;;1.27;1.02;;;9.60;99.90;;;;;;5053739;28;20127;-63
2023/04/24 02:55:55;;;;;;;1.25;1.15;;;9.50;99.90;;;;;;5053899;28;20519;-65
2023/04/24 02:58:20;;;;;;;1.30;1.20;;;9.60;99.90;;;;;;5053005;28;20072;-63
2023/04/24 03:00:47;;;;;;;1.50;1.40;;;9.60;99.90;;;;;;5053296;28;20071;-64
2023/04/24 03:03:13;;;;;;;1.55;1.45;;;9.60;99.90;;;;;;5052599;28;20456;-65
2023/04/24 03:05:38;;;;;;;3.17;1.42;;;9.50;99.90;;;;;;5052373;28;20111;-63
2023/04/24 03:08:04;;;;;;;1.77;1.40;;;9.60;99.90;;;;;;5051305;28;20049;-65
2023/04/24 03:10:30;;;;;;;1.70;1.60;;;9.50;99.90;;;;;;5070813;28;20074;-64
2023/04/24 03:12:56;;;;;;;2.33;1.67;;;9.50;99.90;;;;;;5068624;28;20060;-65
2023/04/24 03:15:22;;;;;;;1.50;1.40;;;9.50;99.90;;;;;;5050118;28;20045;-64
2023/04/24 03:17:47;;;;;;;1.67;1.58;;;9.50;99.90;;;;;;5052847;28;20399;-64
2023/04/24 03:20:13;;;;;;;1.70;1.60;;;9.50;99.90;;;;;;5045988;28;20095;-64
2023/04/24 03:22:39;;;;;;;1.48;1.38;;;9.50;99.90;;;;;;5045885;28;20044;-63
2023/04/24 03:25:05;;;;;;;1.33;1.30;;;9.50;99.90;;;;;;5045981;28;20064;-64
2023/04/24 03:27:31;;;;;;;1.25;1.17;;;9.50;99.90;;;;;;5044546;28;20038;-64
2023/04/24 03:29:57;;;;;;;1.67;1.30;;;9.50;99.90;;;;;;5046334;28;20052;-64
2023/04/24 03:32:22;;;;;;;1.13;1.00;;;9.50;99.90;;;;;;5044639;28;20164;-63
2023/04/24 03:34:49;;;;;;;1.13;1.02;;;9.60;99.90;;;;;;5045837;28;20049;-63
2023/04/24 03:37:16;;;;;;;1.30;1.20;;;9.60;99.90;;;;;;5044136;28;20053;-65
2023/04/24 03:39:41;;;;;;;1.45;0.93;;;9.60;99.90;;;;;;5045680;28;20040;-65
2023/04/24 03:42:08;;;;;;;0.80;0.80;;;9.50;99.90;;;;;;5045787;28;20419;-64
2023/04/24 03:44:34;;;;;;;0.50;0.50;;;9.50;99.90;;;;;;5044051;28;20090;-64
2023/04/24 03:47:00;;;;;;;0.60;0.47;;;9.50;99.90;;;;;;5044566;28;20122;-63
2023/04/24 03:49:26;;;;;;;0.40;0.40;;;9.40;99.90;;;;;;5043548;28;20101;-64
2023/04/24 03:51:52;;;;;;;0.40;0.40;;;9.40;99.90;;;;;;5049867;28;20044;-63
2023/04/24 03:54:18;;;;;;;0.30;0.30;;;9.40;99.90;;;;;;5046046;28;20049;-64
2023/04/24 03:56:44;;;;;;;0.50;0.50;;;9.40;99.90;;;;;;5046022;28;20044;-64
2023/04/24 03:59:10;;;;;;;0.40;0.30;;;9.40;99.90;;;;;;5048775;28;20040;-65
2023/04/24 04:01:37;;;;;;;0.30;0.30;;;9.30;99.90;;;;;;5048602;28;20033;-64
2023/04/24 04:04:06;;;;;;;0.30;0.30;;;9.30;99.90;;;;;;5047406;28;20118;-64
2023/04/24 04:06:32;;;;;;;0.30;0.30;;;9.20;99.90;;;;;;5050081;28;20041;-64
2023/04/24 04:08:58;;;;;;;0.40;0.40;;;9.20;99.90;;;;;;5048796;28;20059;-63
2023/04/24 04:11:24;;;;;;;2.50;0.45;;;9.20;99.90;;;;;;5048613;28;20041;-63
2023/04/24 04:13:50;;;;;;;1.05;0.50;;;9.20;99.90;;;;;;5048333;28;20047;-64
2023/04/24 04:16:18;;;;;;;0.47;0.47;;;9.20;99.90;;;;;;5048528;28;20029;-63
2023/04/24 04:18:45;;;;;;;1.02;0.57;;;9.10;99.90;;;;;;5047860;28;20051;-63
2023/04/24 04:21:11;;;;;;;0.60;0.52;;;9.20;99.90;;;;;;5047908;28;20553;-63
2023/04/24 04:23:36;;;;;;;1.40;0.50;;;9.10;99.90;;;;;;5048327;28;20034;-64
2023/04/24 04:26:03;;;;;;;2.00;0.70;;;9.10;99.90;;;;;;5047723;28;20045;-63
2023/04/24 04:28:30;;;;;;;0.70;0.70;;;9.10;99.90;;;;;;5046993;28;20044;-64
2023/04/24 04:30:57;;;;;;;0.80;0.80;;;9.10;99.90;;;;;;5047446;28;20060;-63
2023/04/24 04:33:26;;;;;;;1.00;0.85;;;9.10;99.90;;;;;;5030238;28;20055;-63
2023/04/24 04:35:52;;;;;;;1.73;1.00;;;9.10;99.90;;;;;;5043196;28;20060;-63
2023/04/24 04:38:19;;;;;;;1.20;1.10;;;9.10;99.90;;;;;;5044412;28;20116;-64
2023/04/24 04:40:45;;;;;;;1.05;0.90;;;9.10;99.90;;;;;;5045432;28;20419;-64
2023/04/24 04:43:13;;;;;;;1.58;1.00;;;9.20;99.90;;;;;;5045886;28;20490;-62
2023/04/24 04:45:40;;;;;;;3.65;1.10;;;9.20;99.90;;;;;;5049057;28;20112;-64
2023/04/24 04:48:08;;;;;;;0.90;0.90;;;9.10;99.90;;;;;;5048016;28;20036;-65
2023/04/24 04:50:34;;;;;;;0.80;0.80;;;9.10;99.90;;;;;;5048430;28;20052;-63
2023/04/24 04:53:00;;;;;;;1.50;0.77;;;9.20;99.90;;;;;;5050660;28;20033;-65
2023/04/24 04:55:26;;;;;;;0.80;0.80;;;9.20;99.90;;;;;;5049085;28;20548;-70
2023/04/24 04:57:52;;;;;;;0.70;0.70;;;9.20;99.90;;;;;;5048800;28;20388;-64
2023/04/24 05:00:18;;;;;;;1.27;1.00;;;9.20;99.90;;;;;;5049836;28;20040;-64
2023/04/24 05:02:43;;;;;;;0.98;0.90;;;9.20;99.90;;;;;;5031572;28;20053;-65
2023/04/24 05:05:09;;;;;;;1.15;1.08;;;9.30;99.90;;;;;;5048079;28;20045;-65
2023/04/24 05:07:35;;;;;;;1.40;1.30;;;9.30;99.90;;;;;;5047676;28;20407;-65
2023/04/24 05:10:01;;;;;;;2.28;1.30;;;9.30;99.90;;;;;;5065020;28;20064;-64
2023/04/24 05:12:27;;;;;;;1.90;1.70;;;9.30;99.90;;;;;;5048380;28;20052;-65
2023/04/24 05:14:53;;;;;;;2.00;1.80;;;9.40;99.90;;;;;;5048075;28;20045;-65
2023/04/24 05:17:18;;;;;;;2.03;1.83;;;9.50;99.90;;;;;;5031886;28;20077;-64
2023/04/24 05:19:44;;;;;;;2.20;2.00;;;9.50;99.90;;;;;;5047806;28;20040;-65
2023/04/24 05:22:11;;;;;;;2.50;2.30;;;9.50;99.90;;;;;;5050642;28;20033;-64
2023/04/24 05:24:37;;;;;;;2.60;2.40;;;9.50;99.90;;;;;;5050979;28;20118;-64
2023/04/24 05:27:04;;;;;;;4.00;2.33;;;9.60;99.90;;;;;;5053481;28;20076;-64
2023/04/24 05:29:33;;;;;;;4.18;3.10;;;9.60;99.90;;;;;;5053527;28;20391;-63
2023/04/24 05:32:00;;;;;;;3.50;3.20;;;9.60;99.90;;;;;;5051142;28;20036;-65
2023/04/24 05:34:26;;;;;;;3.75;3.45;;;9.60;99.90;;;;;;5052613;28;20053;-65
2023/04/24 05:36:52;;;;;;;4.20;3.05;;;9.60;99.90;;;;;;5052088;28;20052;-65
2023/04/24 05:39:18;;;;;;;3.08;2.88;;;9.50;99.90;;;;;;5052625;28;20108;-64
2023/04/24 05:41:44;;;;;;;4.13;3.25;;;9.60;99.90;;;;;;5051659;28;20077;-63
2023/04/24 05:44:09;;;;;;;4.20;3.80;;;9.50;99.90;;;;;;5050935;28;20863;-64
2023/04/24 05:46:35;;;;;;;5.72;4.18;;;9.50;99.90;;;;;;5049254;28;20079;-66
2023/04/24 05:49:02;;;;;;;5.50;4.20;;;9.50;99.90;;;;;;5052492;28;20041;-66
2023/04/24 05:51:28;;;;;;;4.78;4.28;;;9.50;99.90;;;;;;5052728;28;20057;-64
2023/04/24 05:53:54;;;;;;;4.70;4.30;;;9.50;99.90;;;;;;5051227;28;20055;-63
2023/04/24 05:56:20;;;;;;;4.72;4.18;;;9.50;99.90;;;;;;5050591;28;20080;-65
2023/04/24 05:58:46;;;;;;;5.80;4.60;;;9.50;99.90;;;;;;5050365;28;20040;-64
2023/04/24 06:01:13;;;;;;;5.28;4.35;;;9.50;99.90;;;;;;5051414;28;21748;-64
2023/04/24 06:03:40;;;;;;;4.47;4.07;;;9.50;99.90;;;;;;5051450;28;20436;-65
2023/04/24 06:06:07;;;;;;;4.53;4.07;;;9.50;99.90;;;;;;5051501;28;20112;-66
2023/04/24 06:08:33;;;;;;;5.70;4.82;;;9.50;99.90;;;;;;5049771;28;20092;-65
2023/04/24 06:10:59;;;;;;;5.03;4.30;;;9.50;99.90;;;;;;5049509;28;20061;-64
2023/04/24 06:13:24;;;;;;;4.80;4.30;;;9.40;99.90;;;;;;5064419;28;20048;-64
2023/04/24 06:15:50;;;;;;;4.68;3.78;;;9.40;99.90;;;;;;5043231;28;20124;-66
2023/04/24 06:18:17;;;;;;;6.40;4.18;;;9.40;99.90;;;;;;5047716;28;20037;-65
2023/04/24 06:20:42;;;;;;;11.65;4.57;;;9.40;99.90;;;;;;5047444;28;20061;-64
2023/04/24 06:23:08;;;;;;;7.38;4.25;;;9.40;99.90;;;;;;5047942;28;20076;-65
2023/04/24 06:25:34;;;;;;;4.93;3.90;;;9.40;99.90;;;;;;5046509;28;20048;-64
2023/04/24 06:27:59;;;;;;;4.20;3.50;;;9.40;99.90;;;;;;5047629;28;20048;-63
2023/04/24 06:30:25;;;;;;;5.05;3.28;;;9.40;99.90;;;;;;5029304;28;20037;-66
2023/04/24 06:32:51;;;;;;;5.85;3.55;;;9.40;99.90;;;;;;5049242;28;20357;-64
2023/04/24 06:35:16;;;;;;;5.40;3.50;;;9.40;99.90;;;;;;5048253;28;20107;-64
2023/04/24 06:37:43;;;;;;;6.50;3.78;;;9.40;99.90;;;;;;5049575;28;20538;-64
2023/04/24 06:40:09;;;;;;;7.15;4.20;;;9.40;99.90;;;;;;5052026;28;20442;-64
2023/04/24 06:42:35;;;;;;;6.50;4.63;;;9.40;99.90;;;;;;5049194;28;20082;-65
2023/04/24 06:45:01;;;;;;;4.80;4.30;;;9.40;99.90;;;;;;5048590;28;20068;-64
2023/04/24 06:47:27;;;;;;;7.28;4.82;;;9.30;99.90;;;;;;5050146;28;20041;-64
2023/04/24 06:49:53;;;;;;;8.50;4.57;;;9.30;99.90;;;;;;5049696;28;20476;-66
2023/04/24 06:52:19;;;;;;;7.25;4.90;;;9.30;99.90;;;;;;5051593;28;20099;-64
2023/04/24 06:54:45;;;;;;;6.60;5.10;;;9.30;99.90;;;;;;5051496;28;20065;-65
2023/04/24 06:57:11;;;;;;;9.05;5.13;;;9.30;99.90;;;;;;5051416;28;20071;-64
2023/04/24 06:59:37;;;;;;;10.98;5.07;;;9.30;99.90;;;;;;5045951;28;21978;-64
2023/04/24 07:02:03;;;;;;;7.45;5.70;;;9.30;99.90;;;;;;5045348;28;20045;-66
2023/04/24 07:04:29;;;;;;;7.47;5.15;;;9.30;99.90;;;;;;5045430;28;20091;-65
2023/04/24 07:06:55;;;;;;;8.52;4.97;;;9.30;99.90;;;;;;5049282;28;20049;-65
2023/04/24 07:09:23;;;;;;;8.13;5.68;;;9.30;99.90;;;;;;5050165;28;20057;-65
2023/04/24 07:11:49;;;;;;;7.38;4.80;;;9.30;99.90;;;;;;5048175;28;20053;-65
2023/04/24 07:14:15;;;;;;;5.45;4.20;;;9.30;99.90;;;;;;5046916;28;20049;-65
2023/04/24 07:16:42;;;;;;;5.30;4.25;;;9.30;99.90;;;;;;5049825;28;20048;-65
2023/04/24 07:19:08;;;;;;;6.97;4.18;;;9.30;99.90;;;;;;5049110;28;20472;-64
2023/04/24 07:21:34;;;;;;;8.30;4.05;;;9.20;99.90;;;;;;5045465;28;20045;-65
2023/04/24 07:24:00;;;;;;;4.78;3.75;;;9.20;99.90;;;;;;5038249;28;20607;-64
2023/04/24 07:26:28;;;;;;;7.35;3.90;;;9.20;99.90;;;;;;5044019;28;20048;-66
2023/04/24 07:28:53;;;;;;;5.20;3.25;;;9.20;99.90;;;;;;5059691;28;20037;-65
2023/04/24 07:31:19;;;;;;;4.00;3.42;;;9.30;99.90;;;;;;5046588;28;20033;-66
2023/04/24 07:33:45;;;;;;;4.25;3.10;;;9.20;99.90;;;;;;5048986;28;20037;-66
2023/04/24 07:36:15;;;;;;;5.57;2.90;;;9.20;99.90;;;;;;5041986;28;20178;-63
2023/04/24 07:38:42;;;;;;;3.38;2.60;;;9.10;99.90;;;;;;5048012;28;20037;-65
2023/04/24 07:41:07;;;;;;;5.53;2.75;;;9.10;99.90;;;;;;5047469;28;20111;-64
2023/04/24 07:43:33;;;;;;;5.38;2.55;;;9.20;99.90;;;;;;5045781;28;20044;-63
2023/04/24 07:45:59;;;;;;;3.80;2.30;;;9.20;99.90;;;;;;5045646;28;20119;-67
2023/04/24 07:48:26;;;;;;;6.32;2.42;;;9.20;99.90;;;;;;5041664;28;20051;-65
2023/04/24 07:50:52;;;;;;;4.85;2.22;;;9.20;99.90;;;;;;5047234;28;20500;-68
2023/04/24 07:53:17;;;;;;;4.63;2.20;;;9.20;99.90;;;;;;5045191;28;20044;-67
2023/04/24 07:55:43;;;;;;;4.18;2.20;;;9.30;99.90;;;;;;5042430;28;20050;-66
2023/04/24 07:58:09;;;;;;;6.18;2.40;;;9.30;99.90;;;;;;5049388;28;20065;-62
2023/04/24 08:00:35;;;;;;;3.70;2.50;;;9.20;99.90;;;;;;5046557;28;20041;-65
2023/04/24 08:03:01;;;;;;;8.90;3.85;;;9.20;99.90;;;;;;5046528;28;20049;-67
2023/04/24 08:05:28;;;;;;;7.88;5.05;;;9.20;99.90;;;;;;5048812;28;20099;-67
2023/04/24 08:07:54;;;;;;;9.05;5.82;;;9.20;99.90;;;;;;5044972;28;20115;-64
2023/04/24 08:10:22;;;;;;;12.95;7.28;;;9.20;99.90;;;;;;5048385;28;20582;-66
2023/04/24 08:12:48;;;;;;;16.08;8.90;;;9.10;99.90;;;;;;5050339;28;20033;-65
2023/04/24 08:15:13;;;;;;;16.65;9.98;;;9.10;99.90;;;;;;5045347;28;20131;-63
2023/04/24 08:17:39;;;;;;;18.52;12.18;;;9.10;99.90;;;;;;5047418;28;20488;-68
2023/04/24 08:20:05;;;;;;;18.75;11.70;;;9.10;99.90;;;;;;5047458;28;20087;-65
2023/04/24 08:22:31;;;;;;;24.05;12.23;;;9.00;99.90;;;;;;5046986;28;20408;-67
2023/04/24 08:24:59;;;;;;;22.15;11.48;;;9.00;99.90;;;;;;5048879;28;20074;-64
2023/04/24 08:27:26;;;;;;;20.10;10.63;;;9.00;99.90;;;;;;5062409;28;20511;-66
2023/04/24 08:29:53;;;;;;;18.90;11.23;;;9.00;99.90;;;;;;5048740;28;20120;-67
2023/04/24 08:32:19;;;;;;;22.75;11.82;;;9.00;99.90;;;;;;5048280;28;20435;-64
2023/04/24 08:34:44;;;;;;;24.98;12.77;;;9.00;99.90;;;;;;5048628;28;20045;-67
2023/04/24 08:37:10;;;;;;;20.90;13.80;;;8.90;99.90;;;;;;5048670;28;20060;-65
2023/04/24 08:39:36;;;;;;;22.75;13.82;;;8.90;99.90;;;;;;5048812;28;20404;-66
2023/04/24 08:42:07;;;;;;;27.05;16.02;;;8.80;99.90;;;;;;5062425;28;20055;-65
2023/04/24 08:44:34;;;;;;;24.27;15.15;;;8.80;99.90;;;;;;5061952;28;20138;-66
2023/04/24 08:47:01;;;;;;;22.58;15.48;;;8.70;99.90;;;;;;5048089;28;20123;-65
2023/04/24 08:49:28;;;;;;;23.25;14.88;;;8.60;99.90;;;;;;5060952;28;20041;-68
2023/04/24 08:51:55;;;;;;;21.80;14.07;;;8.60;99.90;;;;;;5048476;28;20080;-65
2023/04/24 08:54:21;;;;;;;22.15;13.45;;;8.60;99.90;;;;;;5047779;28;20041;-67
2023/04/24 08:56:48;;;;;;;18.50;12.55;;;8.60;99.90;;;;;;5049249;28;20037;-68
2023/04/24 08:59:17;;;;;;;23.15;12.95;;;8.60;99.90;;;;;;5049150;28;20063;-65
2023/04/24 09:01:45;;;;;;;18.98;12.55;;;8.60;99.90;;;;;;5045792;28;20503;-65
2023/04/24 09:04:12;;;;;;;18.00;12.32;;;8.60;99.90;;;;;;5049130;28;20045;-65
2023/04/24 09:06:38;;;;;;;19.90;12.10;;;8.60;99.90;;;;;;5047724;28;20158;-64
2023/04/24 09:09:05;;;;;;;80.60;51.95;;;8.60;99.90;;;;;;5049476;28;20025;-66
2023/04/24 09:11:34;;;;;;;72.70;42.90;;;8.70;99.90;;;;;;5048603;28;20048;-66
2023/04/24 09:14:01;;;;;;;28.10;18.80;;;8.60;99.90;;;;;;5048434;28;20514;-64
2023/04/24 09:16:27;;;;;;;45.33;33.60;;;8.70;99.90;;;;;;5048224;28;20049;-65
2023/04/24 09:18:53;;;;;;;17.35;10.95;;;8.70;99.90;;;;;;5049224;28;20040;-66
2023/04/24 09:21:21;;;;;;;18.85;10.70;;;8.60;99.90;;;;;;5047908;28;20049;-64
2023/04/24 09:23:56;;;;;;;14.85;10.48;;;8.60;99.90;;;;;;5049325;28;20036;-68
2023/04/24 09:26:22;;;;;;;12.80;9.75;;;8.60;99.90;;;;;;5047547;28;20048;-65
2023/04/24 09:28:48;;;;;;;11.90;8.88;;;8.70;99.90;;;;;;5049298;28;20043;-65
2023/04/24 09:31:18;;;;;;;16.13;9.32;;;8.70;99.90;;;;;;5048081;28;20049;-66
2023/04/24 09:34:03;;;;;;;16.50;9.05;;;8.70;99.90;;;;;;5047688;28;20140;-65
2023/04/24 09:36:40;;;;;;;14.32;8.23;;;8.80;99.90;;;;;;5046916;28;20064;-65
2023/04/24 09:39:11;;;;;;;12.30;8.15;;;8.90;99.90;;;;;;5046872;28;20033;-67
2023/04/24 09:41:52;;;;;;;15.40;8.20;;;9.00;99.90;;;;;;5045078;28;20503;-66
2023/04/24 09:44:23;;;;;;;13.98;7.35;;;9.00;99.90;;;;;;5047646;28;20036;-68
2023/04/24 09:47:00;;;;;;;21.05;7.40;;;9.00;99.90;;;;;;5048552;28;20036;-65
2023/04/24 09:49:30;;;;;;;13.88;8.10;;;9.10;99.90;;;;;;5028892;28;20523;-66
2023/04/24 09:52:08;;;;;;;12.25;7.03;;;9.10;99.90;;;;;;5047986;28;20120;-66
2023/04/24 09:54:33;;;;;;;9.68;6.22;;;9.20;99.90;;;;;;5046676;28;20409;-64
2023/04/24 09:57:02;;;;;;;10.13;5.35;;;9.20;99.90;;;;;;5047945;28;20049;-67
2023/04/24 09:59:28;;;;;;;13.65;4.90;;;9.20;99.90;;;;;;5044818;28;20496;-66
2023/04/24 10:01:54;;;;;;;10.68;5.03;;;9.10;99.90;;;;;;5047367;28;20044;-67
2023/04/24 10:04:23;;;;;;;10.05;4.05;;;9.10;99.90;;;;;;5046397;28;20040;-66
2023/04/24 10:06:49;;;;;;;10.55;4.70;;;9.10;99.90;;;;;;5046626;28;20044;-63
2023/04/24 10:09:20;;;;;;;8.85;4.22;;;9.00;99.90;;;;;;5047946;28;20389;-64
2023/04/24 10:11:49;;;;;;;10.30;3.80;;;8.90;99.90;;;;;;5051131;28;20092;-64
2023/04/24 10:14:22;;;;;;;11.27;3.35;;;8.80;99.90;;;;;;5049337;28;20166;-65
2023/04/24 10:16:49;;;;;;;10.35;3.22;;;8.60;99.90;;;;;;5051281;28;20459;-65
2023/04/24 10:19:16;;;;;;;9.00;2.78;;;8.60;99.90;;;;;;5048557;28;20029;-65
2023/04/24 10:21:46;;;;;;;8.35;2.83;;;8.50;99.90;;;;;;5051067;28;20090;-65
2023/04/24 10:24:20;;;;;;;6.05;2.42;;;8.50;99.90;;;;;;5049869;28;20049;-64
2023/04/24 10:26:48;;;;;;;11.68;2.67;;;8.40;99.90;;;;;;5050939;28;20052;-63
2023/04/24 10:29:16;;;;;;;8.30;2.60;;;8.50;99.90;;;;;;5050571;28;20045;-66
2023/04/24 10:31:45;;;;;;;7.97;2.60;;;8.40;99.90;;;;;;5051046;28;20040;-64
2023/04/24 10:34:10;;;;;;;7.20;2.63;;;8.50;99.90;;;;;;5049166;28;20518;-64
2023/04/24 10:36:41;;;;;;;7.68;2.60;;;8.50;99.90;;;;;;5050671;28;20045;-63
2023/04/24 10:39:11;;;;;;;7.35;2.40;;;8.60;99.90;;;;;;5049953;28;20454;-64
2023/04/24 10:41:38;;;;;;;8.05;2.75;;;8.70;99.90;;;;;;5048234;28;20044;-63
2023/04/24 10:44:23;;;;;;;9.88;2.78;;;8.90;99.90;;;;;;5049739;28;20069;-63
2023/04/24 10:46:55;;;;;;;12.23;3.03;;;8.90;99.90;;;;;;5033464;28;20060;-63
2023/04/24 10:49:31;;;;;;;13.90;4.03;;;8.90;99.90;;;;;;5048556;28;20033;-63
2023/04/24 10:52:02;;;;;;;10.70;2.85;;;9.00;99.90;;;;;;5050395;28;20037;-64
2023/04/24 10:54:33;;;;;;;14.68;3.40;;;9.00;99.90;;;;;;5051652;28;20057;-66
2023/04/24 10:57:18;;;;;;;9.50;2.47;;;9.10;99.90;;;;;;5049464;28;20122;-65
2023/04/24 10:59:44;;;;;;;8.90;2.45;;;9.20;99.90;;;;;;5047360;28;20041;-63
2023/04/24 11:02:10;;;;;;;10.48;2.53;;;9.30;99.90;;;;;;5050360;28;20045;-64
2023/04/24 11:04:36;;;;;;;11.50;2.38;;;9.30;99.90;;;;;;5049586;28;20046;-65
2023/04/24 11:07:05;;;;;;;10.68;2.00;;;9.30;99.90;;;;;;5050184;28;20043;-63
2023/04/24 11:09:31;;;;;;;6.47;1.73;;;9.30;99.90;;;;;;5050540;28;20506;-65
2023/04/24 11:12:11;;;;;;;6.35;1.63;;;9.40;99.90;;;;;;5050536;28;20040;-64
2023/04/24 11:14:56;;;;;;;5.65;1.88;;;9.30;99.90;;;;;;5049533;28;20041;-64
2023/04/24 11:17:39;;;;;;;9.35;1.92;;;9.30;99.90;;;;;;5049582;28;20047;-65
2023/04/24 11:20:07;;;;;;;9.85;1.92;;;9.30;99.90;;;;;;5033002;28;20040;-65
2023/04/24 11:22:35;;;;;;;8.63;1.90;;;9.30;99.90;;;;;;5049258;28;20431;-67
2023/04/24 11:25:04;;;;;;;8.98;2.08;;;9.30;99.90;;;;;;5050083;28;20129;-64
2023/04/24 11:27:34;;;;;;;9.75;1.92;;;9.30;99.90;;;;;;5049566;28;20053;-67
2023/04/24 11:30:02;;;;;;;7.32;1.90;;;9.30;99.90;;;;;;5050125;28;20511;-65
2023/04/24 11:32:29;;;;;;;4.15;1.27;;;9.30;99.90;;;;;;5049543;28;20400;-65
2023/04/24 11:35:16;;;;;;;9.40;1.77;;;9.30;99.90;;;;;;5049831;28;20124;-66
2023/04/24 11:37:45;;;;;;;6.55;1.58;;;9.40;99.90;;;;;;5048796;28;20045;-63
2023/04/24 11:40:13;;;;;;;8.27;1.75;;;9.50;99.90;;;;;;5050187;28;20488;-66
2023/04/24 11:42:47;;;;;;;5.03;1.40;;;9.50;99.90;;;;;;5049036;28;20041;-65
2023/04/24 11:45:16;;;;;;;5.22;1.70;;;9.50;99.90;;;;;;5045005;28;20107;-66
2023/04/24 11:47:42;;;;;;;5.13;2.30;;;9.40;99.90;;;;;;5049259;28;20116;-63
2023/04/24 11:50:11;;;;;;;6.07;1.98;;;9.40;99.90;;;;;;5048364;28;20079;-69
2023/04/24 11:52:39;;;;;;;5.90;1.48;;;9.30;99.90;;;;;;5048728;28;20541;-68
2023/04/24 11:55:19;;;;;;;5.25;1.63;;;9.30;99.90;;;;;;5051366;28;20049;-66
2023/04/24 11:57:47;;;;;;;4.22;1.50;;;9.20;99.90;;;;;;5048741;28;20036;-68
2023/04/24 12:00:18;;;;;;;6.35;1.50;;;9.20;99.90;;;;;;5050120;28;20040;-67
2023/04/24 12:02:44;;;;;;;4.50;1.60;;;9.20;99.90;;;;;;5048713;28;20492;-64
2023/04/24 12:05:24;;;;;;;6.85;1.98;;;9.20;99.90;;;;;;5048020;28;20079;-64
2023/04/24 12:07:49;;;;;;;8.48;1.60;;;9.20;99.90;;;;;;5047352;28;20049;-65
2023/04/24 12:10:20;;;;;;;7.95;1.70;;;9.20;99.90;;;;;;5048059;28;20056;-66
2023/04/24 12:12:46;;;;;;;6.20;1.73;;;9.30;99.90;;;;;;5047601;28;20393;-69
2023/04/24 12:15:12;;;;;;;6.13;1.15;;;9.40;99.90;;;;;;5047641;28;20135;-65
2023/04/24 12:17:41;;;;;;;6.90;1.30;;;9.30;99.90;;;;;;5031824;28;20064;-63
2023/04/24 12:20:08;;;;;;;4.25;1.35;;;9.30;99.90;;;;;;5048834;28;20476;-67
2023/04/24 12:22:45;;;;;;;5.53;1.10;;;9.10;99.90;;;;;;5046284;28;20049;-65
2023/04/24 12:25:11;;;;;;;3.40;0.70;;;8.90;99.90;;;;;;5047368;28;20480;-63
2023/04/24 12:27:37;;;;;;;3.08;0.90;;;8.80;99.90;;;;;;5030561;28;20060;-65
2023/04/24 12:30:05;;;;;;;4.15;1.15;;;8.80;99.90;;;;;;5048388;28;20040;-66
2023/04/24 12:32:31;;;;;;;3.63;0.90;;;8.80;99.90;;;;;;5046866;28;20438;-65
2023/04/24 12:34:57;;;;;;;2.72;0.82;;;8.90;99.90;;;;;;5048045;28;20124;-64
2023/04/24 12:37:32;;;;;;;1.92;0.90;;;8.90;99.90;;;;;;5047257;28;20096;-66
2023/04/24 12:40:07;;;;;;;8.48;1.45;;;8.90;99.90;;;;;;5049102;28;20080;-65
2023/04/24 12:42:33;;;;;;;3.33;1.00;;;9.00;99.90;;;;;;5047427;28;20045;-65
2023/04/24 12:45:04;;;;;;;6.72;1.02;;;9.00;99.90;;;;;;5046204;28;20106;-65
2023/04/24 12:47:31;;;;;;;4.95;1.10;;;9.10;99.90;;;;;;5048299;28;20041;-66
2023/04/24 12:49:57;;;;;;;6.05;1.10;;;9.10;99.90;;;;;;5046751;28;20060;-67
2023/04/24 12:52:23;;;;;;;3.67;0.82;;;9.10;99.90;;;;;;5047089;28;20060;-65